Dumas, Arkansas
Current Conditions -  °F | °C
As of 2:53 AM on Saturday 29 Nov 2014 (Local Time) from KLLQ Reporting Station
Overcast Overcast  
Wind Chill: 50°   Ceiling: 800
Heat Index: 50°   Visibility: 10mi
Dew Point: 46°   Wind: 10mph
Humidity: 86%   Direction: 190°S
Pressure: 30.09"   Gusts: NA
Location:  33.89°N, 91.49°W
Report Text: KLLQ 290853Z AUTO 19009KT 10SM OVC008 10/08 A3009 RMK AO2 SLP187 T01000078 56004
Loading
Personal Weather Stations






























Interactive Weather Map New forecast layout! Learn more

10-Day Weather Forecast

Advertisements
Track Severe Weather on mobile